sensor_id;sensor_type;location;lat;lon;timestamp;P1;durP1;ratioP1;P2;durP2;ratioP2
31438;SDS011;18062;48.872;9.220;2023-12-20T00:02:21;1.80;;;1.37;;
31438;SDS011;18062;48.872;9.220;2023-12-20T00:04:47;2.17;;;1.50;;
31438;SDS011;18062;48.872;9.220;2023-12-20T00:07:16;1.50;;;1.30;;
31438;SDS011;18062;48.872;9.220;2023-12-20T00:09:42;2.53;;;1.30;;
31438;SDS011;18062;48.872;9.220;2023-12-20T00:12:09;1.60;;;1.30;;
31438;SDS011;18062;48.872;9.220;2023-12-20T00:14:35;1.30;;;1.10;;
31438;SDS011;18062;48.872;9.220;2023-12-20T00:17:02;1.40;;;1.20;;
31438;SDS011;18062;48.872;9.220;2023-12-20T00:19:28;1.90;;;1.40;;
31438;SDS011;18062;48.872;9.220;2023-12-20T00:21:54;1.40;;;1.20;;
31438;SDS011;18062;48.872;9.220;2023-12-20T00:24:20;1.27;;;1.17;;
31438;SDS011;18062;48.872;9.220;2023-12-20T00:26:46;1.50;;;1.23;;
31438;SDS011;18062;48.872;9.220;2023-12-20T00:29:13;1.20;;;1.03;;
31438;SDS011;18062;48.872;9.220;2023-12-20T00:31:39;1.87;;;1.40;;
31438;SDS011;18062;48.872;9.220;2023-12-20T00:34:05;1.93;;;1.20;;
31438;SDS011;18062;48.872;9.220;2023-12-20T00:36:31;2.80;;;1.40;;
31438;SDS011;18062;48.872;9.220;2023-12-20T00:38:57;1.20;;;1.10;;
31438;SDS011;18062;48.872;9.220;2023-12-20T00:41:23;2.20;;;1.40;;
31438;SDS011;18062;48.872;9.220;2023-12-20T00:43:49;1.20;;;1.10;;
31438;SDS011;18062;48.872;9.220;2023-12-20T00:46:15;1.40;;;1.30;;
31438;SDS011;18062;48.872;9.220;2023-12-20T00:48:41;2.77;;;1.50;;
31438;SDS011;18062;48.872;9.220;2023-12-20T00:51:07;1.43;;;1.33;;
31438;SDS011;18062;48.872;9.220;2023-12-20T00:53:33;1.50;;;1.40;;
31438;SDS011;18062;48.872;9.220;2023-12-20T00:55:59;1.63;;;1.30;;
31438;SDS011;18062;48.872;9.220;2023-12-20T00:58:25;1.90;;;1.50;;
31438;SDS011;18062;48.872;9.220;2023-12-20T01:00:52;1.40;;;1.30;;
31438;SDS011;18062;48.872;9.220;2023-12-20T01:03:19;1.40;;;1.30;;
31438;SDS011;18062;48.872;9.220;2023-12-20T01:05:45;1.50;;;1.40;;
31438;SDS011;18062;48.872;9.220;2023-12-20T01:08:11;2.47;;;1.40;;
31438;SDS011;18062;48.872;9.220;2023-12-20T01:10:37;3.97;;;1.50;;
31438;SDS011;18062;48.872;9.220;2023-12-20T01:13:03;1.50;;;1.30;;
31438;SDS011;18062;48.872;9.220;2023-12-20T01:15:29;2.30;;;1.73;;
31438;SDS011;18062;48.872;9.220;2023-12-20T01:17:55;2.40;;;1.67;;
31438;SDS011;18062;48.872;9.220;2023-12-20T01:20:23;4.00;;;1.80;;
31438;SDS011;18062;48.872;9.220;2023-12-20T01:22:49;2.13;;;1.73;;
31438;SDS011;18062;48.872;9.220;2023-12-20T01:25:15;5.17;;;1.90;;
31438;SDS011;18062;48.872;9.220;2023-12-20T01:27:41;2.50;;;1.73;;
31438;SDS011;18062;48.872;9.220;2023-12-20T01:30:07;2.27;;;1.80;;
31438;SDS011;18062;48.872;9.220;2023-12-20T01:32:34;3.23;;;1.80;;
31438;SDS011;18062;48.872;9.220;2023-12-20T01:35:00;2.53;;;1.87;;
31438;SDS011;18062;48.872;9.220;2023-12-20T01:37:26;4.13;;;1.60;;
31438;SDS011;18062;48.872;9.220;2023-12-20T01:39:54;2.30;;;1.90;;
31438;SDS011;18062;48.872;9.220;2023-12-20T01:42:20;3.00;;;2.20;;
31438;SDS011;18062;48.872;9.220;2023-12-20T01:44:47;1.90;;;1.70;;
31438;SDS011;18062;48.872;9.220;2023-12-20T01:47:13;1.80;;;1.70;;
31438;SDS011;18062;48.872;9.220;2023-12-20T01:49:39;2.40;;;2.10;;
31438;SDS011;18062;48.872;9.220;2023-12-20T01:52:06;2.43;;;2.17;;
31438;SDS011;18062;48.872;9.220;2023-12-20T01:54:32;3.30;;;2.20;;
31438;SDS011;18062;48.872;9.220;2023-12-20T01:56:58;2.47;;;1.87;;
31438;SDS011;18062;48.872;9.220;2023-12-20T01:59:24;2.63;;;1.97;;
31438;SDS011;18062;48.872;9.220;2023-12-20T02:01:50;2.10;;;1.80;;
31438;SDS011;18062;48.872;9.220;2023-12-20T02:04:17;4.07;;;2.27;;
31438;SDS011;18062;48.872;9.220;2023-12-20T02:06:43;2.73;;;2.10;;
31438;SDS011;18062;48.872;9.220;2023-12-20T02:09:09;2.13;;;1.93;;
31438;SDS011;18062;48.872;9.220;2023-12-20T02:11:35;2.73;;;2.13;;
31438;SDS011;18062;48.872;9.220;2023-12-20T02:14:01;3.30;;;2.33;;
31438;SDS011;18062;48.872;9.220;2023-12-20T02:16:27;3.13;;;2.03;;
31438;SDS011;18062;48.872;9.220;2023-12-20T02:18:53;3.83;;;2.43;;
31438;SDS011;18062;48.872;9.220;2023-12-20T02:21:24;5.00;;;2.60;;
31438;SDS011;18062;48.872;9.220;2023-12-20T02:23:50;3.27;;;2.47;;
31438;SDS011;18062;48.872;9.220;2023-12-20T02:26:16;3.90;;;2.60;;
31438;SDS011;18062;48.872;9.220;2023-12-20T02:28:43;3.97;;;2.57;;
31438;SDS011;18062;48.872;9.220;2023-12-20T02:31:09;3.37;;;2.20;;
31438;SDS011;18062;48.872;9.220;2023-12-20T02:33:35;3.10;;;2.40;;
31438;SDS011;18062;48.872;9.220;2023-12-20T02:36:01;3.33;;;2.30;;
31438;SDS011;18062;48.872;9.220;2023-12-20T02:38:27;5.93;;;2.77;;
31438;SDS011;18062;48.872;9.220;2023-12-20T02:40:53;3.20;;;2.60;;
31438;SDS011;18062;48.872;9.220;2023-12-20T02:43:19;5.47;;;2.67;;
31438;SDS011;18062;48.872;9.220;2023-12-20T02:45:45;2.67;;;2.23;;
31438;SDS011;18062;48.872;9.220;2023-12-20T02:48:11;3.63;;;2.23;;
31438;SDS011;18062;48.872;9.220;2023-12-20T02:50:37;2.17;;;1.90;;
31438;SDS011;18062;48.872;9.220;2023-12-20T02:53:03;2.03;;;1.70;;
31438;SDS011;18062;48.872;9.220;2023-12-20T02:55:29;1.50;;;1.10;;
31438;SDS011;18062;48.872;9.220;2023-12-20T02:57:55;0.90;;;0.87;;
31438;SDS011;18062;48.872;9.220;2023-12-20T03:00:22;0.73;;;0.60;;
31438;SDS011;18062;48.872;9.220;2023-12-20T03:02:48;1.07;;;0.80;;
31438;SDS011;18062;48.872;9.220;2023-12-20T03:05:14;1.37;;;0.60;;
31438;SDS011;18062;48.872;9.220;2023-12-20T03:07:40;0.70;;;0.70;;
31438;SDS011;18062;48.872;9.220;2023-12-20T03:10:06;0.70;;;0.67;;
31438;SDS011;18062;48.872;9.220;2023-12-20T03:12:33;0.50;;;0.50;;
31438;SDS011;18062;48.872;9.220;2023-12-20T03:14:59;0.50;;;0.50;;
31438;SDS011;18062;48.872;9.220;2023-12-20T03:17:25;0.60;;;0.60;;
31438;SDS011;18062;48.872;9.220;2023-12-20T03:19:51;0.70;;;0.70;;
31438;SDS011;18062;48.872;9.220;2023-12-20T03:22:17;0.60;;;0.50;;
31438;SDS011;18062;48.872;9.220;2023-12-20T03:24:43;1.37;;;0.80;;
31438;SDS011;18062;48.872;9.220;2023-12-20T03:27:09;0.53;;;0.53;;
31438;SDS011;18062;48.872;9.220;2023-12-20T03:29:35;0.50;;;0.50;;
31438;SDS011;18062;48.872;9.220;2023-12-20T03:32:01;0.70;;;0.70;;
31438;SDS011;18062;48.872;9.220;2023-12-20T03:34:27;0.40;;;0.40;;
31438;SDS011;18062;48.872;9.220;2023-12-20T03:36:54;0.40;;;0.40;;
31438;SDS011;18062;48.872;9.220;2023-12-20T03:39:20;0.50;;;0.50;;
31438;SDS011;18062;48.872;9.220;2023-12-20T03:41:46;0.70;;;0.70;;
31438;SDS011;18062;48.872;9.220;2023-12-20T03:44:12;0.57;;;0.53;;
31438;SDS011;18062;48.872;9.220;2023-12-20T03:46:38;0.60;;;0.60;;
31438;SDS011;18062;48.872;9.220;2023-12-20T03:49:04;0.50;;;0.50;;
31438;SDS011;18062;48.872;9.220;2023-12-20T03:51:30;0.50;;;0.50;;
31438;SDS011;18062;48.872;9.220;2023-12-20T03:53:56;0.60;;;0.60;;
31438;SDS011;18062;48.872;9.220;2023-12-20T03:56:22;0.50;;;0.50;;
31438;SDS011;18062;48.872;9.220;2023-12-20T03:58:48;0.97;;;0.70;;
31438;SDS011;18062;48.872;9.220;2023-12-20T04:01:14;0.50;;;0.50;;
31438;SDS011;18062;48.872;9.220;2023-12-20T04:03:41;0.60;;;0.60;;
31438;SDS011;18062;48.872;9.220;2023-12-20T04:06:07;1.80;;;0.90;;
31438;SDS011;18062;48.872;9.220;2023-12-20T04:08:33;1.00;;;0.53;;
31438;SDS011;18062;48.872;9.220;2023-12-20T04:10:59;0.70;;;0.70;;
31438;SDS011;18062;48.872;9.220;2023-12-20T04:13:25;0.60;;;0.60;;
31438;SDS011;18062;48.872;9.220;2023-12-20T04:15:51;0.97;;;0.70;;
31438;SDS011;18062;48.872;9.220;2023-12-20T04:18:17;0.57;;;0.57;;
31438;SDS011;18062;48.872;9.220;2023-12-20T04:20:43;0.60;;;0.40;;
31438;SDS011;18062;48.872;9.220;2023-12-20T04:23:09;0.70;;;0.60;;
31438;SDS011;18062;48.872;9.220;2023-12-20T04:25:35;2.13;;;0.70;;
31438;SDS011;18062;48.872;9.220;2023-12-20T04:28:01;0.67;;;0.60;;
31438;SDS011;18062;48.872;9.220;2023-12-20T04:30:27;0.60;;;0.60;;
31438;SDS011;18062;48.872;9.220;2023-12-20T04:32:53;0.60;;;0.60;;
31438;SDS011;18062;48.872;9.220;2023-12-20T04:35:20;1.27;;;0.83;;
31438;SDS011;18062;48.872;9.220;2023-12-20T04:37:46;0.70;;;0.70;;
31438;SDS011;18062;48.872;9.220;2023-12-20T04:40:14;0.40;;;0.40;;
31438;SDS011;18062;48.872;9.220;2023-12-20T04:42:40;0.77;;;0.67;;
31438;SDS011;18062;48.872;9.220;2023-12-20T04:45:06;0.60;;;0.60;;
31438;SDS011;18062;48.872;9.220;2023-12-20T04:47:32;0.53;;;0.53;;
31438;SDS011;18062;48.872;9.220;2023-12-20T04:49:59;0.60;;;0.60;;
31438;SDS011;18062;48.872;9.220;2023-12-20T04:52:25;0.60;;;0.60;;
31438;SDS011;18062;48.872;9.220;2023-12-20T04:54:51;0.60;;;0.60;;
31438;SDS011;18062;48.872;9.220;2023-12-20T04:57:17;1.23;;;0.80;;
31438;SDS011;18062;48.872;9.220;2023-12-20T04:59:43;0.40;;;0.40;;
31438;SDS011;18062;48.872;9.220;2023-12-20T05:02:09;0.60;;;0.60;;
31438;SDS011;18062;48.872;9.220;2023-12-20T05:04:35;0.90;;;0.70;;
31438;SDS011;18062;48.872;9.220;2023-12-20T05:07:01;0.77;;;0.70;;
31438;SDS011;18062;48.872;9.220;2023-12-20T05:09:29;0.60;;;0.60;;
31438;SDS011;18062;48.872;9.220;2023-12-20T05:11:56;0.50;;;0.50;;
31438;SDS011;18062;48.872;9.220;2023-12-20T05:14:22;0.50;;;0.50;;
31438;SDS011;18062;48.872;9.220;2023-12-20T05:16:48;0.60;;;0.60;;
31438;SDS011;18062;48.872;9.220;2023-12-20T05:19:14;0.60;;;0.60;;
31438;SDS011;18062;48.872;9.220;2023-12-20T05:21:40;0.83;;;0.73;;
31438;SDS011;18062;48.872;9.220;2023-12-20T05:24:06;0.63;;;0.63;;
31438;SDS011;18062;48.872;9.220;2023-12-20T05:26:32;0.57;;;0.53;;
31438;SDS011;18062;48.872;9.220;2023-12-20T05:28:59;0.70;;;0.70;;
31438;SDS011;18062;48.872;9.220;2023-12-20T05:31:25;0.80;;;0.80;;
31438;SDS011;18062;48.872;9.220;2023-12-20T05:33:50;0.80;;;0.80;;
31438;SDS011;18062;48.872;9.220;2023-12-20T05:36:17;1.30;;;1.00;;
31438;SDS011;18062;48.872;9.220;2023-12-20T05:38:42;0.90;;;0.80;;
31438;SDS011;18062;48.872;9.220;2023-12-20T05:41:09;1.77;;;1.20;;
31438;SDS011;18062;48.872;9.220;2023-12-20T05:43:35;1.53;;;1.10;;
31438;SDS011;18062;48.872;9.220;2023-12-20T05:46:01;1.57;;;1.47;;
31438;SDS011;18062;48.872;9.220;2023-12-20T05:48:27;1.23;;;1.13;;
31438;SDS011;18062;48.872;9.220;2023-12-20T05:50:53;1.30;;;1.20;;
31438;SDS011;18062;48.872;9.220;2023-12-20T05:53:19;1.57;;;1.30;;
31438;SDS011;18062;48.872;9.220;2023-12-20T05:55:45;1.00;;;0.90;;
31438;SDS011;18062;48.872;9.220;2023-12-20T05:58:11;1.87;;;1.47;;
31438;SDS011;18062;48.872;9.220;2023-12-20T06:00:37;2.37;;;1.57;;
31438;SDS011;18062;48.872;9.220;2023-12-20T06:03:03;2.87;;;2.07;;
31438;SDS011;18062;48.872;9.220;2023-12-20T06:05:30;1.97;;;1.40;;
31438;SDS011;18062;48.872;9.220;2023-12-20T06:07:56;3.23;;;1.60;;
31438;SDS011;18062;48.872;9.220;2023-12-20T06:10:26;2.00;;;1.80;;
31438;SDS011;18062;48.872;9.220;2023-12-20T06:12:52;1.60;;;1.50;;
31438;SDS011;18062;48.872;9.220;2023-12-20T06:15:18;2.33;;;1.57;;
31438;SDS011;18062;48.872;9.220;2023-12-20T06:17:44;1.83;;;1.70;;
31438;SDS011;18062;48.872;9.220;2023-12-20T06:20:11;1.73;;;1.40;;
31438;SDS011;18062;48.872;9.220;2023-12-20T06:22:38;2.30;;;1.70;;
31438;SDS011;18062;48.872;9.220;2023-12-20T06:25:04;2.60;;;1.50;;
31438;SDS011;18062;48.872;9.220;2023-12-20T06:27:31;2.10;;;1.50;;
31438;SDS011;18062;48.872;9.220;2023-12-20T06:29:57;2.30;;;1.63;;
31438;SDS011;18062;48.872;9.220;2023-12-20T06:32:24;2.37;;;1.40;;
31438;SDS011;18062;48.872;9.220;2023-12-20T06:34:50;1.40;;;1.30;;
31438;SDS011;18062;48.872;9.220;2023-12-20T06:37:16;1.23;;;1.13;;
31438;SDS011;18062;48.872;9.220;2023-12-20T06:39:42;1.70;;;1.40;;
31438;SDS011;18062;48.872;9.220;2023-12-20T06:42:08;2.10;;;1.60;;
31438;SDS011;18062;48.872;9.220;2023-12-20T06:44:34;1.70;;;1.60;;
31438;SDS011;18062;48.872;9.220;2023-12-20T06:47:00;2.70;;;1.80;;
31438;SDS011;18062;48.872;9.220;2023-12-20T06:49:26;2.17;;;1.97;;
31438;SDS011;18062;48.872;9.220;2023-12-20T06:51:52;2.60;;;1.97;;
31438;SDS011;18062;48.872;9.220;2023-12-20T06:54:18;2.93;;;1.77;;
31438;SDS011;18062;48.872;9.220;2023-12-20T06:56:44;2.43;;;1.97;;
31438;SDS011;18062;48.872;9.220;2023-12-20T06:59:10;4.53;;;2.40;;
31438;SDS011;18062;48.872;9.220;2023-12-20T07:01:36;3.53;;;2.60;;
31438;SDS011;18062;48.872;9.220;2023-12-20T07:04:03;4.53;;;2.77;;
31438;SDS011;18062;48.872;9.220;2023-12-20T07:06:29;3.77;;;3.00;;
31438;SDS011;18062;48.872;9.220;2023-12-20T07:08:55;3.90;;;3.17;;
31438;SDS011;18062;48.872;9.220;2023-12-20T07:11:21;4.00;;;3.10;;
31438;SDS011;18062;48.872;9.220;2023-12-20T07:13:47;4.17;;;3.63;;
31438;SDS011;18062;48.872;9.220;2023-12-20T07:16:13;4.20;;;3.50;;
31438;SDS011;18062;48.872;9.220;2023-12-20T07:18:39;5.70;;;3.53;;
31438;SDS011;18062;48.872;9.220;2023-12-20T07:21:05;5.53;;;3.73;;
31438;SDS011;18062;48.872;9.220;2023-12-20T07:23:33;5.03;;;3.47;;
31438;SDS011;18062;48.872;9.220;2023-12-20T07:25:59;5.43;;;4.20;;
31438;SDS011;18062;48.872;9.220;2023-12-20T07:28:25;5.53;;;4.20;;
31438;SDS011;18062;48.872;9.220;2023-12-20T07:30:51;5.33;;;3.97;;
31438;SDS011;18062;48.872;9.220;2023-12-20T07:33:17;5.93;;;3.90;;
31438;SDS011;18062;48.872;9.220;2023-12-20T07:35:51;5.77;;;4.07;;
31438;SDS011;18062;48.872;9.220;2023-12-20T07:38:21;5.27;;;3.77;;
31438;SDS011;18062;48.872;9.220;2023-12-20T07:40:53;6.17;;;4.40;;
31438;SDS011;18062;48.872;9.220;2023-12-20T07:43:22;5.57;;;4.20;;
31438;SDS011;18062;48.872;9.220;2023-12-20T07:45:48;5.33;;;3.83;;
31438;SDS011;18062;48.872;9.220;2023-12-20T07:48:14;5.27;;;3.77;;
31438;SDS011;18062;48.872;9.220;2023-12-20T07:50:40;6.23;;;4.20;;
31438;SDS011;18062;48.872;9.220;2023-12-20T07:53:07;4.17;;;3.40;;
31438;SDS011;18062;48.872;9.220;2023-12-20T07:55:33;5.10;;;3.77;;
31438;SDS011;18062;48.872;9.220;2023-12-20T07:57:59;6.13;;;3.70;;
31438;SDS011;18062;48.872;9.220;2023-12-20T08:00:26;6.40;;;4.17;;
31438;SDS011;18062;48.872;9.220;2023-12-20T08:02:52;4.13;;;3.33;;
31438;SDS011;18062;48.872;9.220;2023-12-20T08:05:24;4.20;;;3.30;;
31438;SDS011;18062;48.872;9.220;2023-12-20T08:07:50;4.00;;;3.10;;
31438;SDS011;18062;48.872;9.220;2023-12-20T08:10:16;4.47;;;3.60;;
31438;SDS011;18062;48.872;9.220;2023-12-20T08:12:44;4.80;;;3.53;;
31438;SDS011;18062;48.872;9.220;2023-12-20T08:15:13;4.70;;;2.93;;
31438;SDS011;18062;48.872;9.220;2023-12-20T08:17:39;6.30;;;3.63;;
31438;SDS011;18062;48.872;9.220;2023-12-20T08:20:05;4.53;;;3.40;;
31438;SDS011;18062;48.872;9.220;2023-12-20T08:22:32;4.77;;;3.63;;
31438;SDS011;18062;48.872;9.220;2023-12-20T08:24:58;4.63;;;3.60;;
31438;SDS011;18062;48.872;9.220;2023-12-20T08:27:24;4.40;;;3.50;;
31438;SDS011;18062;48.872;9.220;2023-12-20T08:29:50;5.97;;;3.50;;
31438;SDS011;18062;48.872;9.220;2023-12-20T08:32:16;4.67;;;3.10;;
31438;SDS011;18062;48.872;9.220;2023-12-20T08:34:42;5.93;;;3.23;;
31438;SDS011;18062;48.872;9.220;2023-12-20T08:37:11;5.23;;;3.10;;
31438;SDS011;18062;48.872;9.220;2023-12-20T08:39:37;3.77;;;3.30;;
31438;SDS011;18062;48.872;9.220;2023-12-20T08:42:03;7.30;;;3.70;;
31438;SDS011;18062;48.872;9.220;2023-12-20T08:44:29;5.07;;;3.43;;
31438;SDS011;18062;48.872;9.220;2023-12-20T08:46:58;4.53;;;3.17;;
31438;SDS011;18062;48.872;9.220;2023-12-20T08:49:24;4.87;;;3.33;;
31438;SDS011;18062;48.872;9.220;2023-12-20T08:51:50;9.90;;;4.07;;
31438;SDS011;18062;48.872;9.220;2023-12-20T08:54:16;6.23;;;3.70;;
31438;SDS011;18062;48.872;9.220;2023-12-20T08:56:44;5.80;;;3.53;;
31438;SDS011;18062;48.872;9.220;2023-12-20T08:59:12;7.27;;;3.77;;
31438;SDS011;18062;48.872;9.220;2023-12-20T09:01:39;5.27;;;3.80;;
31438;SDS011;18062;48.872;9.220;2023-12-20T09:04:05;7.83;;;4.67;;
31438;SDS011;18062;48.872;9.220;2023-12-20T09:06:31;5.93;;;4.17;;
31438;SDS011;18062;48.872;9.220;2023-12-20T09:08:57;6.53;;;4.20;;
31438;SDS011;18062;48.872;9.220;2023-12-20T09:11:23;6.47;;;3.83;;
31438;SDS011;18062;48.872;9.220;2023-12-20T09:13:49;4.23;;;3.57;;
31438;SDS011;18062;48.872;9.220;2023-12-20T09:16:15;5.80;;;4.30;;
31438;SDS011;18062;48.872;9.220;2023-12-20T09:18:42;5.43;;;3.80;;
31438;SDS011;18062;48.872;9.220;2023-12-20T09:21:08;5.00;;;3.80;;
31438;SDS011;18062;48.872;9.220;2023-12-20T09:23:34;5.47;;;3.97;;
31438;SDS011;18062;48.872;9.220;2023-12-20T09:26:01;10.63;;;3.60;;
31438;SDS011;18062;48.872;9.220;2023-12-20T09:28:27;4.00;;;3.43;;
31438;SDS011;18062;48.872;9.220;2023-12-20T09:30:53;5.90;;;3.47;;
31438;SDS011;18062;48.872;9.220;2023-12-20T09:33:20;4.77;;;3.73;;
31438;SDS011;18062;48.872;9.220;2023-12-20T09:35:46;6.43;;;3.40;;
31438;SDS011;18062;48.872;9.220;2023-12-20T09:38:12;2.83;;;2.50;;
31438;SDS011;18062;48.872;9.220;2023-12-20T09:40:41;4.20;;;2.50;;
31438;SDS011;18062;48.872;9.220;2023-12-20T09:43:11;3.63;;;2.20;;
31438;SDS011;18062;48.872;9.220;2023-12-20T09:45:37;2.47;;;1.80;;
31438;SDS011;18062;48.872;9.220;2023-12-20T09:48:05;5.87;;;1.90;;
31438;SDS011;18062;48.872;9.220;2023-12-20T09:50:31;2.43;;;1.40;;
31438;SDS011;18062;48.872;9.220;2023-12-20T09:52:58;2.20;;;1.53;;
31438;SDS011;18062;48.872;9.220;2023-12-20T09:55:26;1.30;;;1.20;;
31438;SDS011;18062;48.872;9.220;2023-12-20T09:57:53;2.47;;;1.30;;
31438;SDS011;18062;48.872;9.220;2023-12-20T10:00:19;3.47;;;1.23;;
31438;SDS011;18062;48.872;9.220;2023-12-20T10:03:06;4.03;;;1.07;;
31438;SDS011;18062;48.872;9.220;2023-12-20T10:05:32;1.47;;;1.13;;
31438;SDS011;18062;48.872;9.220;2023-12-20T10:07:59;3.67;;;0.87;;
31438;SDS011;18062;48.872;9.220;2023-12-20T10:10:26;1.90;;;1.10;;
31438;SDS011;18062;48.872;9.220;2023-12-20T10:13:01;2.37;;;1.00;;
31438;SDS011;18062;48.872;9.220;2023-12-20T10:15:28;2.00;;;1.07;;
31438;SDS011;18062;48.872;9.220;2023-12-20T10:17:54;3.10;;;1.00;;
31438;SDS011;18062;48.872;9.220;2023-12-20T10:20:20;3.70;;;1.00;;
31438;SDS011;18062;48.872;9.220;2023-12-20T10:22:46;1.97;;;0.90;;
31438;SDS011;18062;48.872;9.220;2023-12-20T10:25:13;2.73;;;1.03;;
31438;SDS011;18062;48.872;9.220;2023-12-20T10:27:39;1.93;;;0.90;;
31438;SDS011;18062;48.872;9.220;2023-12-20T10:30:06;3.67;;;0.87;;
31438;SDS011;18062;48.872;9.220;2023-12-20T10:32:32;3.27;;;1.20;;
31438;SDS011;18062;48.872;9.220;2023-12-20T10:34:58;4.57;;;1.20;;
31438;SDS011;18062;48.872;9.220;2023-12-20T10:37:24;2.97;;;1.17;;
31438;SDS011;18062;48.872;9.220;2023-12-20T10:39:51;3.00;;;1.10;;
31438;SDS011;18062;48.872;9.220;2023-12-20T10:42:20;2.07;;;1.00;;
31438;SDS011;18062;48.872;9.220;2023-12-20T10:44:47;2.20;;;1.20;;
31438;SDS011;18062;48.872;9.220;2023-12-20T10:47:14;1.20;;;1.10;;
31438;SDS011;18062;48.872;9.220;2023-12-20T10:49:40;3.30;;;1.40;;
31438;SDS011;18062;48.872;9.220;2023-12-20T10:52:07;2.73;;;0.90;;
31438;SDS011;18062;48.872;9.220;2023-12-20T10:54:34;1.33;;;1.10;;
31438;SDS011;18062;48.872;9.220;2023-12-20T10:57:00;2.83;;;1.20;;
31438;SDS011;18062;48.872;9.220;2023-12-20T10:59:29;3.77;;;1.03;;
31438;SDS011;18062;48.872;9.220;2023-12-20T11:01:58;2.57;;;1.20;;
31438;SDS011;18062;48.872;9.220;2023-12-20T11:04:34;4.10;;;1.10;;
31438;SDS011;18062;48.872;9.220;2023-12-20T11:07:08;0.93;;;0.83;;
31438;SDS011;18062;48.872;9.220;2023-12-20T11:09:40;1.60;;;0.83;;
31438;SDS011;18062;48.872;9.220;2023-12-20T11:12:18;3.03;;;1.20;;
31438;SDS011;18062;48.872;9.220;2023-12-20T11:14:47;1.70;;;0.87;;
31438;SDS011;18062;48.872;9.220;2023-12-20T11:17:13;3.17;;;1.40;;
31438;SDS011;18062;48.872;9.220;2023-12-20T11:22:24;1.77;;;0.70;;
31438;SDS011;18062;48.872;9.220;2023-12-20T11:24:51;2.77;;;0.90;;
31438;SDS011;18062;48.872;9.220;2023-12-20T11:27:18;3.50;;;1.20;;
31438;SDS011;18062;48.872;9.220;2023-12-20T11:29:50;4.00;;;1.20;;
31438;SDS011;18062;48.872;9.220;2023-12-20T11:37:22;2.40;;;1.13;;
31438;SDS011;18062;48.872;9.220;2023-12-20T11:40:27;1.80;;;0.90;;
31438;SDS011;18062;48.872;9.220;2023-12-20T11:42:50;1.50;;;0.83;;
31438;SDS011;18062;48.872;9.220;2023-12-20T11:45:18;1.00;;;0.90;;
31438;SDS011;18062;48.872;9.220;2023-12-20T11:47:46;0.97;;;0.90;;
31438;SDS011;18062;48.872;9.220;2023-12-20T11:50:14;3.57;;;1.20;;
31438;SDS011;18062;48.872;9.220;2023-12-20T11:52:41;2.27;;;1.17;;
31438;SDS011;18062;48.872;9.220;2023-12-20T11:55:07;2.63;;;1.30;;
31438;SDS011;18062;48.872;9.220;2023-12-20T11:57:33;2.57;;;1.00;;
31438;SDS011;18062;48.872;9.220;2023-12-20T11:59:59;3.63;;;1.40;;
31438;SDS011;18062;48.872;9.220;2023-12-20T12:02:25;4.30;;;1.17;;
31438;SDS011;18062;48.872;9.220;2023-12-20T12:04:51;4.93;;;1.63;;
31438;SDS011;18062;48.872;9.220;2023-12-20T12:07:17;3.80;;;1.30;;
31438;SDS011;18062;48.872;9.220;2023-12-20T12:09:43;4.53;;;1.40;;
31438;SDS011;18062;48.872;9.220;2023-12-20T12:12:10;1.73;;;1.20;;
31438;SDS011;18062;48.872;9.220;2023-12-20T12:14:37;1.67;;;1.20;;
31438;SDS011;18062;48.872;9.220;2023-12-20T12:17:03;2.83;;;1.20;;
31438;SDS011;18062;48.872;9.220;2023-12-20T12:19:29;4.20;;;1.30;;
31438;SDS011;18062;48.872;9.220;2023-12-20T12:22:04;3.50;;;1.40;;
31438;SDS011;18062;48.872;9.220;2023-12-20T12:24:36;3.83;;;1.30;;
31438;SDS011;18062;48.872;9.220;2023-12-20T12:27:02;2.17;;;1.10;;
31438;SDS011;18062;48.872;9.220;2023-12-20T12:29:29;2.80;;;1.30;;
31438;SDS011;18062;48.872;9.220;2023-12-20T12:31:55;1.17;;;0.90;;
31438;SDS011;18062;48.872;9.220;2023-12-20T12:34:21;1.33;;;1.23;;
31438;SDS011;18062;48.872;9.220;2023-12-20T12:36:48;4.57;;;1.10;;
31438;SDS011;18062;48.872;9.220;2023-12-20T12:39:17;2.77;;;1.33;;
31438;SDS011;18062;48.872;9.220;2023-12-20T12:41:43;3.20;;;1.20;;
31438;SDS011;18062;48.872;9.220;2023-12-20T12:44:09;3.33;;;1.27;;
31438;SDS011;18062;48.872;9.220;2023-12-20T12:46:35;3.30;;;1.50;;
31438;SDS011;18062;48.872;9.220;2023-12-20T12:49:01;3.17;;;1.03;;
31438;SDS011;18062;48.872;9.220;2023-12-20T12:51:27;2.27;;;1.10;;
31438;SDS011;18062;48.872;9.220;2023-12-20T12:53:53;5.80;;;1.40;;
31438;SDS011;18062;48.872;9.220;2023-12-20T12:56:19;3.33;;;1.03;;
31438;SDS011;18062;48.872;9.220;2023-12-20T12:58:46;2.43;;;1.10;;
31438;SDS011;18062;48.872;9.220;2023-12-20T13:01:12;1.67;;;1.00;;
31438;SDS011;18062;48.872;9.220;2023-12-20T13:03:39;1.83;;;1.27;;
31438;SDS011;18062;48.872;9.220;2023-12-20T13:06:05;3.37;;;1.10;;
31438;SDS011;18062;48.872;9.220;2023-12-20T13:08:33;2.53;;;1.10;;
31438;SDS011;18062;48.872;9.220;2023-12-20T13:10:59;1.20;;;0.93;;
31438;SDS011;18062;48.872;9.220;2023-12-20T13:13:29;3.30;;;1.13;;
31438;SDS011;18062;48.872;9.220;2023-12-20T13:15:55;1.43;;;1.00;;
31438;SDS011;18062;48.872;9.220;2023-12-20T13:18:22;2.40;;;1.03;;
31438;SDS011;18062;48.872;9.220;2023-12-20T13:20:48;5.03;;;1.20;;
31438;SDS011;18062;48.872;9.220;2023-12-20T13:23:14;2.03;;;0.90;;
31438;SDS011;18062;48.872;9.220;2023-12-20T13:25:40;3.17;;;0.90;;
31438;SDS011;18062;48.872;9.220;2023-12-20T13:28:07;1.70;;;0.90;;
31438;SDS011;18062;48.872;9.220;2023-12-20T13:30:33;2.40;;;1.10;;
31438;SDS011;18062;48.872;9.220;2023-12-20T13:33:00;3.53;;;1.30;;
31438;SDS011;18062;48.872;9.220;2023-12-20T13:35:26;1.00;;;0.90;;
31438;SDS011;18062;48.872;9.220;2023-12-20T13:37:52;0.73;;;0.70;;
31438;SDS011;18062;48.872;9.220;2023-12-20T13:40:20;2.87;;;0.90;;
31438;SDS011;18062;48.872;9.220;2023-12-20T13:42:46;4.33;;;1.37;;
31438;SDS011;18062;48.872;9.220;2023-12-20T13:45:13;3.83;;;1.10;;
31438;SDS011;18062;48.872;9.220;2023-12-20T13:47:39;3.63;;;1.13;;
31438;SDS011;18062;48.872;9.220;2023-12-20T13:50:05;3.93;;;0.77;;
31438;SDS011;18062;48.872;9.220;2023-12-20T13:52:31;2.57;;;1.17;;
31438;SDS011;18062;48.872;9.220;2023-12-20T13:54:57;2.50;;;1.20;;
31438;SDS011;18062;48.872;9.220;2023-12-20T13:57:23;2.23;;;1.20;;
31438;SDS011;18062;48.872;9.220;2023-12-20T13:59:49;1.00;;;0.87;;
31438;SDS011;18062;48.872;9.220;2023-12-20T14:02:15;6.23;;;1.10;;
31438;SDS011;18062;48.872;9.220;2023-12-20T14:04:41;1.30;;;0.80;;
31438;SDS011;18062;48.872;9.220;2023-12-20T14:07:07;1.93;;;0.80;;
31438;SDS011;18062;48.872;9.220;2023-12-20T14:09:35;3.10;;;1.33;;
31438;SDS011;18062;48.872;9.220;2023-12-20T14:12:01;4.00;;;1.00;;
31438;SDS011;18062;48.872;9.220;2023-12-20T14:14:27;4.57;;;1.03;;
31438;SDS011;18062;48.872;9.220;2023-12-20T14:16:53;1.33;;;1.10;;
31438;SDS011;18062;48.872;9.220;2023-12-20T14:19:19;1.80;;;1.10;;
31438;SDS011;18062;48.872;9.220;2023-12-20T14:21:45;3.00;;;1.40;;
31438;SDS011;18062;48.872;9.220;2023-12-20T14:24:14;2.67;;;1.30;;
31438;SDS011;18062;48.872;9.220;2023-12-20T14:26:40;1.43;;;1.10;;
31438;SDS011;18062;48.872;9.220;2023-12-20T14:29:07;1.30;;;1.07;;
31438;SDS011;18062;48.872;9.220;2023-12-20T14:31:33;1.97;;;1.20;;
31438;SDS011;18062;48.872;9.220;2023-12-20T14:33:59;5.33;;;1.30;;
31438;SDS011;18062;48.872;9.220;2023-12-20T14:36:28;2.43;;;1.30;;
31438;SDS011;18062;48.872;9.220;2023-12-20T14:38:57;4.57;;;1.67;;
31438;SDS011;18062;48.872;9.220;2023-12-20T14:41:24;1.70;;;1.30;;
31438;SDS011;18062;48.872;9.220;2023-12-20T14:43:53;3.47;;;1.33;;
31438;SDS011;18062;48.872;9.220;2023-12-20T14:46:19;3.77;;;1.13;;
31438;SDS011;18062;48.872;9.220;2023-12-20T14:48:45;2.10;;;1.20;;
31438;SDS011;18062;48.872;9.220;2023-12-20T14:51:13;2.50;;;1.37;;
31438;SDS011;18062;48.872;9.220;2023-12-20T14:53:39;1.97;;;1.03;;